Orangeburg Municipal Airport Orangeburg US
ICAO: KOGB
IATA: OGB
Category: Medium
Scheduled Services: No

Elevation: 195 ft
TransAlt. 18000 ft.

Airport Communications:
COLUMBIA APP/DEP:124.15
ASOS:118.525
CTAF/UNICOM:122.7

KOGB Zoom In..

Runways:

(A) RW 05 length 4508 ft width 100 ft
---- / hdg 49

(B) RW 17 length 5399 ft width 100 ft
---- / hdg 174

(C) RW 23 length 4508 ft width 100 ft
---- / hdg 229

(D) RW 35 length 5399 ft width 100 ft
---- / hdg 354

Location; KOGB
Day. 17 / Time. 06.53 Zulu
* Altimeter: 30.01
* Temperature: 23° c. 73.4°f.
* Wind from: 210° Speed 06 kn.
Dewpoint: 22° c.
Visibility: 10 Statute Miles.
Clouds: Broken 400 ft.
Clouds: Broken 1000 ft.

KOGB 170653Z AUTO 21006KT 10SM BKN004 BKN100 23/22 A3001 RMK AO2 SLP158 T02280222


Wind From 210°
Speed 06 kn.

 
 
jpsmedia.com for Web Design worldairports.se 2018   terms of use